VISIB

Not for real navigation. The accuracy of this data is not assured See disclaimer for more information



ICAO NAME COUNTRY WIND Kt GUST Kt VIS m TEMP/DEW C BARO METAR
SCVM 0 0 50 5/5 29.97 SCVM 181200Z 00000KT 0050 FG VV000 05/05 Q1015
EGHC 7 0 100 15/15 30.18 EGHC 181220Z 25007KT 0100 -DZ FG VV/// 15/15 Q1022
SBPK Pelotas Brazil 0 0 100 4/4 30.42 SBPK 181200Z 00000KT 0100 FG VV001 04/04 Q1030
SBNM 10 0 100 3/1 30.36 SBNM 181200Z 11010KT 0100 BCFG OVC002 03/01 Q1028
SCSE La Serena Chile 2 0 100 8/8 29.97 SCSE 181200Z VRB02KT 0100 FG VV000 08/08 Q1015

Show more